createdAt,value
2023-02-21T00:00:52.178Z,16.40
2023-02-21T00:03:20.052Z,16.44
2023-02-21T00:05:49.242Z,16.40
2023-02-21T00:08:16.881Z,16.38
2023-02-21T00:10:44.462Z,16.39
2023-02-21T00:13:12.512Z,16.42
2023-02-21T00:15:40.157Z,16.40
2023-02-21T00:18:07.733Z,16.41
2023-02-21T00:20:35.222Z,16.38
2023-02-21T00:23:04.275Z,16.38
2023-02-21T00:25:31.758Z,16.39
2023-02-21T00:28:01.225Z,16.34
2023-02-21T00:30:28.791Z,16.42
2023-02-21T00:32:58.773Z,16.37
2023-02-21T00:35:26.901Z,16.42
2023-02-21T00:37:54.495Z,16.33
2023-02-21T00:40:23.621Z,16.36
2023-02-21T00:42:51.870Z,16.36
2023-02-21T00:45:19.413Z,16.42
2023-02-21T00:47:47.082Z,16.41
2023-02-21T00:50:14.680Z,16.41
2023-02-21T00:52:42.245Z,16.45
2023-02-21T00:55:10.775Z,16.45
2023-02-21T00:57:39.815Z,16.40
2023-02-21T01:00:09.561Z,16.40
2023-02-21T01:02:36.767Z,16.40
2023-02-21T01:05:05.278Z,16.50
2023-02-21T01:07:33.004Z,16.46
2023-02-21T01:10:00.751Z,16.46
2023-02-21T01:12:28.364Z,16.37
2023-02-21T01:14:58.433Z,16.37
2023-02-21T01:17:26.807Z,16.35
2023-02-21T01:19:54.414Z,16.30
2023-02-21T01:22:22.463Z,16.34
2023-02-21T01:24:50.110Z,16.36
2023-02-21T01:27:17.861Z,16.38
2023-02-21T01:29:45.698Z,16.39
2023-02-21T01:32:14.748Z,16.36
2023-02-21T01:34:42.278Z,16.38
2023-02-21T01:37:09.814Z,16.29
2023-02-21T01:39:37.995Z,16.32
2023-02-21T01:42:05.666Z,16.31
2023-02-21T01:44:37.148Z,16.35
2023-02-21T01:47:04.802Z,16.32
2023-02-21T01:49:36.654Z,16.33
2023-02-21T01:52:05.898Z,16.27
2023-02-21T01:54:38.361Z,16.31
2023-02-21T01:57:07.735Z,16.23
2023-02-21T01:59:35.431Z,16.29
2023-02-21T02:02:11.708Z,16.20
2023-02-21T02:04:42.516Z,16.18
2023-02-21T02:07:11.146Z,16.25
2023-02-21T02:09:38.684Z,16.15
2023-02-21T02:12:19.274Z,16.22
2023-02-21T02:15:03.965Z,16.18
2023-02-21T02:17:41.430Z,16.18
2023-02-21T02:20:52.316Z,16.17
2023-02-21T02:23:55.345Z,16.15
2023-02-21T02:26:51.161Z,16.19
2023-02-21T02:29:43.422Z,16.22
2023-02-21T02:32:33.485Z,16.25
2023-02-21T02:35:09.529Z,16.21
2023-02-21T02:37:50.151Z,16.18
2023-02-21T02:40:27.548Z,16.19
2023-02-21T02:43:07.687Z,16.23
2023-02-21T02:45:40.162Z,16.19
2023-02-21T02:48:14.845Z,16.18
2023-02-21T02:50:47.627Z,16.16
2023-02-21T02:53:19.737Z,16.26
2023-02-21T02:55:53.065Z,16.17
2023-02-21T02:58:22.441Z,16.29
2023-02-21T03:01:06.822Z,16.24
2023-02-21T03:03:55.916Z,16.19
2023-02-21T03:06:35.177Z,16.25
2023-02-21T03:09:07.105Z,16.22
2023-02-21T03:11:37.807Z,16.27
2023-02-21T03:14:09.997Z,16.14
2023-02-21T03:16:44.197Z,16.27
2023-02-21T03:19:14.592Z,16.25
2023-02-21T03:21:48.041Z,16.29
2023-02-21T03:24:18.206Z,16.30
2023-02-21T03:26:49.522Z,16.21
2023-02-21T03:29:45.185Z,16.23
2023-02-21T03:32:17.574Z,16.26
2023-02-21T03:34:48.134Z,16.20
2023-02-21T03:37:29.910Z,16.21
2023-02-21T03:39:58.212Z,16.25
2023-02-21T03:42:25.927Z,16.31
2023-02-21T03:44:53.775Z,16.27
2023-02-21T03:47:22.163Z,16.30
2023-02-21T03:49:50.236Z,16.34
2023-02-21T03:52:18.254Z,16.29
2023-02-21T03:54:47.390Z,16.30
2023-02-21T03:57:18.487Z,16.29
2023-02-21T03:59:47.944Z,16.38
2023-02-21T04:02:16.121Z,16.29
2023-02-21T04:04:44.286Z,16.31
2023-02-21T04:07:15.821Z,16.38
2023-02-21T04:09:43.533Z,16.40
2023-02-21T04:12:16.849Z,16.36
2023-02-21T04:14:44.642Z,16.55
2023-02-21T04:17:12.599Z,16.38
2023-02-21T04:19:40.882Z,16.58
2023-02-21T04:22:08.569Z,16.64
2023-02-21T04:24:36.181Z,16.57
2023-02-21T04:27:04.293Z,16.55
2023-02-21T04:29:36.493Z,16.47
2023-02-21T04:32:04.844Z,16.44
2023-02-21T04:34:34.042Z,16.40
2023-02-21T04:37:01.950Z,16.36
2023-02-21T04:39:29.923Z,16.43
2023-02-21T04:41:57.520Z,16.42
2023-02-21T04:44:25.096Z,16.39
2023-02-21T04:46:54.093Z,16.35
2023-02-21T04:49:21.926Z,16.47
2023-02-21T04:51:49.547Z,16.39
2023-02-21T04:54:17.120Z,16.44
2023-02-21T04:56:44.660Z,16.48
2023-02-21T04:59:12.287Z,16.67
2023-02-21T05:01:39.857Z,16.65
2023-02-21T05:04:09.759Z,16.70
2023-02-21T05:06:37.800Z,16.70
2023-02-21T05:09:05.363Z,16.84
2023-02-21T05:11:34.675Z,16.15
2023-02-21T05:14:02.488Z,16.37
2023-02-21T05:16:30.333Z,16.53
2023-02-21T05:18:57.876Z,16.51
2023-02-21T05:21:26.963Z,16.61
2023-02-21T05:23:54.474Z,16.57
2023-02-21T05:26:24.082Z,16.62
2023-02-21T05:28:52.361Z,16.64
2023-02-21T05:31:20.101Z,16.60
2023-02-21T05:33:47.804Z,16.67
2023-02-21T05:36:15.377Z,16.74
2023-02-21T05:38:48.625Z,16.72
2023-02-21T05:41:16.928Z,16.62
2023-02-21T05:43:45.374Z,15.90
2023-02-21T05:46:25.078Z,16.36
2023-02-21T05:48:52.576Z,16.61
2023-02-21T05:51:20.699Z,16.47
2023-02-21T05:53:50.360Z,16.59
2023-02-21T05:56:17.616Z,16.54
2023-02-21T05:58:45.516Z,16.69
2023-02-21T06:01:13.520Z,16.68
2023-02-21T06:03:41.464Z,16.69
2023-02-21T06:06:09.077Z,16.72
2023-02-21T06:08:43.367Z,16.85
2023-02-21T06:11:13.303Z,16.66
2023-02-21T06:13:41.742Z,16.69
2023-02-21T06:16:09.390Z,16.71
2023-02-21T06:18:36.992Z,16.74
2023-02-21T06:21:04.725Z,16.72
2023-02-21T06:23:32.408Z,16.85
2023-02-21T06:26:00.417Z,16.76
2023-02-21T06:28:30.574Z,16.85
2023-02-21T06:30:58.403Z,16.76
2023-02-21T06:33:26.040Z,16.93
2023-02-21T06:35:54.199Z,16.82
2023-02-21T06:38:21.811Z,16.91
2023-02-21T06:40:49.366Z,16.83
2023-02-21T06:43:17.442Z,16.89
2023-02-21T06:45:46.510Z,17.37
2023-02-21T06:48:18.520Z,17.50
2023-02-21T06:50:46.255Z,17.28
2023-02-21T06:53:13.841Z,17.00
2023-02-21T06:55:41.440Z,16.96
2023-02-21T06:58:09.409Z,16.98
2023-02-21T07:00:37.143Z,16.99
2023-02-21T07:03:06.742Z,16.98
2023-02-21T07:05:34.358Z,17.15
2023-02-21T07:08:02.373Z,17.10
2023-02-21T07:10:30.913Z,17.09
2023-02-21T07:12:58.477Z,17.00
2023-02-21T07:15:26.121Z,17.05
2023-02-21T07:17:53.708Z,16.91
2023-02-21T07:20:22.754Z,16.64
2023-02-21T07:22:50.351Z,16.91
2023-02-21T07:25:19.605Z,16.76
2023-02-21T07:27:47.873Z,16.78
2023-02-21T07:30:16.299Z,16.77
2023-02-21T07:35:11.768Z,16.73
2023-02-21T07:37:40.807Z,16.85
2023-02-21T07:40:09.529Z,16.86
2023-02-21T07:42:37.077Z,16.81
2023-02-21T07:45:05.007Z,16.86
2023-02-21T07:47:32.654Z,16.86
2023-02-21T07:50:00.324Z,16.92
2023-02-21T07:52:27.963Z,17.13
2023-02-21T07:54:57.131Z,17.11
2023-02-21T07:57:24.750Z,17.03
2023-02-21T07:59:52.328Z,17.02
2023-02-21T08:02:20.508Z,17.01
2023-02-21T08:04:51.110Z,17.02
2023-02-21T08:07:19.746Z,16.95
2023-02-21T08:09:48.354Z,16.94
2023-02-21T08:12:17.521Z,16.91
2023-02-21T08:14:45.102Z,17.04
2023-02-21T08:17:12.711Z,17.13
2023-02-21T08:19:40.191Z,17.20
2023-02-21T08:22:07.718Z,17.05
2023-02-21T08:24:35.288Z,17.06
2023-02-21T08:27:02.806Z,17.06
2023-02-21T08:29:31.967Z,17.32
2023-02-21T08:31:59.720Z,17.19
2023-02-21T08:34:28.310Z,17.18
2023-02-21T08:36:56.429Z,17.27
2023-02-21T08:39:24.132Z,17.24
2023-02-21T08:41:51.715Z,17.18
2023-02-21T08:44:19.386Z,17.28
2023-02-21T08:46:49.852Z,17.22
2023-02-21T08:49:18.760Z,17.18
2023-02-21T08:51:46.392Z,17.24
2023-02-21T08:54:13.982Z,17.26
2023-02-21T08:56:41.590Z,17.31
2023-02-21T08:59:09.225Z,17.29
2023-02-21T09:01:37.356Z,17.31
2023-02-21T09:04:06.757Z,17.39
2023-02-21T09:06:34.417Z,17.41
2023-02-21T09:09:01.993Z,17.47
2023-02-21T09:11:30.129Z,17.76
2023-02-21T09:13:57.694Z,17.91
2023-02-21T09:16:25.680Z,17.96
2023-02-21T09:18:57.092Z,18.08
2023-02-21T09:21:26.484Z,18.22
2023-02-21T09:23:55.891Z,18.30
2023-02-21T09:26:24.316Z,18.41
2023-02-21T09:28:52.772Z,18.36
2023-02-21T09:31:20.913Z,18.35
2023-02-21T09:33:48.584Z,18.36
2023-02-21T09:36:16.673Z,18.41
2023-02-21T09:38:48.552Z,18.50
2023-02-21T09:41:16.290Z,18.55
2023-02-21T09:43:47.772Z,18.79
2023-02-21T09:46:19.488Z,18.65
2023-02-21T09:48:49.015Z,18.83
2023-02-21T09:51:18.388Z,18.61
2023-02-21T09:53:49.556Z,18.72
2023-02-21T09:56:25.510Z,18.77
2023-02-21T09:58:53.137Z,18.80
2023-02-21T10:01:28.241Z,18.97
2023-02-21T10:04:05.679Z,19.10
2023-02-21T10:06:42.314Z,19.10
2023-02-21T10:09:21.548Z,19.08
2023-02-21T10:11:59.446Z,19.30
2023-02-21T10:14:36.581Z,19.28
2023-02-21T10:17:12.505Z,19.13
2023-02-21T10:19:44.161Z,19.20
2023-02-21T10:22:18.688Z,19.29
2023-02-21T10:24:48.742Z,19.23
2023-02-21T10:27:20.115Z,19.37
2023-02-21T10:29:51.710Z,19.21
2023-02-21T10:32:19.527Z,19.31
2023-02-21T10:34:49.231Z,19.33
2023-02-21T10:37:30.032Z,19.27
2023-02-21T10:40:02.790Z,19.35
2023-02-21T10:42:35.682Z,19.36
2023-02-21T10:45:04.887Z,19.57
2023-02-21T10:47:45.592Z,19.54
2023-02-21T10:50:13.711Z,19.65
2023-02-21T10:52:48.732Z,19.74
2023-02-21T10:55:32.302Z,19.66
2023-02-21T10:58:08.579Z,19.76
2023-02-21T11:00:38.919Z,19.80
2023-02-21T11:03:13.059Z,19.75
2023-02-21T11:05:41.056Z,19.92
2023-02-21T11:08:09.914Z,19.78
2023-02-21T11:10:41.866Z,19.87
2023-02-21T11:13:16.009Z,19.88
2023-02-21T11:15:44.402Z,19.82
2023-02-21T11:18:18.994Z,19.94
2023-02-21T11:20:46.976Z,19.85
2023-02-21T11:23:35.599Z,19.89
2023-02-21T11:26:10.591Z,20.00
2023-02-21T11:28:40.398Z,19.94
2023-02-21T11:31:15.753Z,19.98
2023-02-21T11:33:52.565Z,20.00
2023-02-21T11:36:21.179Z,19.94
2023-02-21T11:39:02.036Z,20.12
2023-02-21T11:41:37.185Z,19.94
2023-02-21T11:44:24.950Z,19.92
2023-02-21T11:46:58.509Z,19.92
2023-02-21T11:49:43.143Z,20.03
2023-02-21T11:52:14.659Z,19.76
2023-02-21T11:54:43.906Z,19.83
2023-02-21T11:57:20.774Z,19.99
2023-02-21T11:59:55.822Z,20.06
2023-02-21T12:02:52.821Z,20.02
2023-02-21T12:05:33.195Z,20.01
2023-02-21T12:08:20.822Z,20.15
2023-02-21T12:10:57.007Z,20.21
2023-02-21T12:13:36.354Z,20.07
2023-02-21T12:16:12.330Z,19.98
2023-02-21T12:18:56.204Z,19.94
2023-02-21T12:21:47.137Z,20.08
2023-02-21T12:24:29.073Z,20.07
2023-02-21T12:27:02.310Z,20.12
2023-02-21T12:29:47.056Z,20.12
2023-02-21T12:32:36.064Z,20.09
2023-02-21T12:35:37.341Z,19.92
2023-02-21T12:38:10.554Z,19.92
2023-02-21T12:40:45.422Z,20.02
2023-02-21T12:43:39.261Z,20.21
2023-02-21T12:46:14.869Z,20.10
2023-02-21T12:48:48.177Z,20.05
2023-02-21T12:51:20.793Z,19.95
2023-02-21T12:53:53.142Z,20.03
2023-02-21T12:56:25.060Z,20.02
2023-02-21T12:58:56.985Z,20.27
2023-02-21T13:01:31.837Z,20.18
2023-02-21T13:04:09.821Z,20.05
2023-02-21T13:06:42.749Z,20.15
2023-02-21T13:09:21.167Z,19.82
2023-02-21T13:11:59.613Z,19.97
2023-02-21T13:14:36.371Z,20.09
2023-02-21T13:17:05.700Z,20.31
2023-02-21T13:19:42.465Z,20.18
2023-02-21T13:22:23.030Z,20.02
2023-02-21T13:25:21.369Z,20.02
2023-02-21T13:28:07.273Z,20.03
2023-02-21T13:30:41.196Z,19.99
2023-02-21T13:33:25.362Z,20.29
2023-02-21T13:35:53.483Z,20.28
2023-02-21T13:38:21.641Z,20.23
2023-02-21T13:40:53.272Z,20.03
2023-02-21T13:43:25.133Z,20.16
2023-02-21T13:45:53.052Z,20.02
2023-02-21T13:48:27.982Z,20.08
2023-02-21T13:50:57.255Z,20.37
2023-02-21T13:53:26.959Z,20.29
2023-02-21T13:56:24.273Z,20.20
2023-02-21T13:58:51.856Z,20.20
2023-02-21T14:01:47.628Z,20.06
2023-02-21T14:05:00.803Z,20.23
2023-02-21T14:07:49.005Z,20.49
2023-02-21T14:10:32.533Z,20.39
2023-02-21T14:13:04.394Z,20.32
2023-02-21T14:15:43.881Z,20.17
2023-02-21T14:18:16.051Z,20.30
2023-02-21T14:20:45.927Z,20.32
2023-02-21T14:23:17.305Z,20.32
2023-02-21T14:25:58.424Z,20.56
2023-02-21T14:29:00.431Z,20.35
2023-02-21T14:31:53.000Z,20.32
2023-02-21T14:34:35.518Z,20.33
2023-02-21T14:37:12.172Z,20.33
2023-02-21T14:39:44.201Z,20.23
2023-02-21T14:42:39.552Z,20.52
2023-02-21T14:45:36.733Z,20.35
2023-02-21T14:48:26.110Z,20.31
2023-02-21T14:51:25.148Z,20.22
2023-02-21T14:54:42.981Z,20.27
2023-02-21T14:57:50.617Z,20.44
2023-02-21T15:00:23.202Z,20.32
2023-02-21T15:02:55.313Z,20.23
2023-02-21T15:05:28.013Z,20.36
2023-02-21T15:08:06.169Z,20.28
2023-02-21T15:10:40.765Z,20.28
2023-02-21T15:13:23.737Z,20.24
2023-02-21T15:15:57.974Z,20.24
2023-02-21T15:18:28.022Z,20.41
2023-02-21T15:21:07.965Z,20.33
2023-02-21T15:23:36.080Z,20.30
2023-02-21T15:26:18.661Z,20.29
2023-02-21T15:28:47.777Z,20.35
2023-02-21T15:31:16.744Z,20.47
2023-02-21T15:33:44.771Z,20.48
2023-02-21T15:36:18.622Z,20.66
2023-02-21T15:38:50.181Z,20.63
2023-02-21T15:41:28.218Z,20.59
2023-02-21T15:44:01.232Z,20.52
2023-02-21T15:46:33.184Z,20.42
2023-02-21T15:49:03.760Z,20.56
2023-02-21T15:51:32.653Z,20.68
2023-02-21T15:54:21.936Z,20.61
2023-02-21T15:57:01.243Z,20.66
2023-02-21T15:59:31.327Z,20.53
2023-02-21T16:02:14.579Z,20.54
2023-02-21T16:04:43.826Z,20.43
2023-02-21T16:07:21.540Z,20.56
2023-02-21T16:09:51.220Z,20.54
2023-02-21T16:12:27.018Z,19.03
2023-02-21T16:15:00.210Z,19.47
2023-02-21T16:17:32.424Z,20.06
2023-02-21T16:20:02.965Z,20.16
2023-02-21T16:22:43.089Z,20.06
2023-02-21T16:25:23.821Z,20.43
2023-02-21T16:27:52.969Z,20.65
2023-02-21T16:30:25.349Z,20.49
2023-02-21T16:32:54.934Z,20.46
2023-02-21T16:35:25.292Z,20.39
2023-02-21T16:37:55.242Z,20.55
2023-02-21T16:40:25.831Z,20.63
2023-02-21T16:42:55.199Z,20.71
2023-02-21T16:45:24.697Z,20.72
2023-02-21T16:47:57.545Z,20.58
2023-02-21T16:50:29.155Z,20.65
2023-02-21T16:52:57.221Z,20.69
2023-02-21T16:55:25.337Z,20.63
2023-02-21T16:57:55.333Z,20.72
2023-02-21T17:00:25.274Z,20.82
2023-02-21T17:02:53.644Z,20.89
2023-02-21T17:05:22.115Z,20.80
2023-02-21T17:07:51.162Z,20.76
2023-02-21T17:10:20.003Z,20.83
2023-02-21T17:12:47.614Z,20.78
2023-02-21T17:15:15.380Z,20.91
2023-02-21T17:17:52.703Z,20.94
2023-02-21T17:20:22.607Z,20.79
2023-02-21T17:22:50.485Z,20.78
2023-02-21T17:25:19.414Z,20.87
2023-02-21T17:27:47.221Z,20.87
2023-02-21T17:30:16.175Z,20.84
2023-02-21T17:32:45.826Z,20.89
2023-02-21T17:35:13.458Z,21.01
2023-02-21T17:37:41.567Z,20.97
2023-02-21T17:40:10.557Z,20.95
2023-02-21T17:42:39.402Z,20.93
2023-02-21T17:45:08.389Z,20.97
2023-02-21T17:50:05.639Z,20.92
2023-02-21T17:52:33.653Z,21.10
2023-02-21T17:55:01.665Z,21.01
2023-02-21T17:57:29.476Z,20.96
2023-02-21T17:59:57.357Z,21.04
2023-02-21T18:02:24.970Z,20.95
2023-02-21T18:04:52.665Z,21.07
2023-02-21T18:07:21.764Z,20.95
2023-02-21T18:09:49.494Z,21.09
2023-02-21T18:12:17.149Z,21.06
2023-02-21T18:14:45.248Z,21.02
2023-02-21T18:17:13.323Z,21.01
2023-02-21T18:22:08.254Z,21.07
2023-02-21T18:24:37.370Z,21.14
2023-02-21T18:27:05.055Z,21.18
2023-02-21T18:29:32.635Z,21.09
2023-02-21T18:32:00.341Z,21.09
2023-02-21T18:34:27.885Z,21.06
2023-02-21T18:36:56.373Z,21.08
2023-02-21T18:39:24.680Z,21.12
2023-02-21T18:41:53.649Z,21.17
2023-02-21T18:44:21.218Z,21.21
2023-02-21T18:46:52.757Z,21.15
2023-02-21T18:49:21.117Z,21.06
2023-02-21T18:51:49.205Z,21.16
2023-02-21T18:54:17.373Z,21.14
2023-02-21T18:56:49.007Z,21.26
2023-02-21T18:59:18.809Z,21.20
2023-02-21T19:01:48.332Z,21.20
2023-02-21T19:04:15.917Z,21.13
2023-02-21T19:06:43.679Z,21.11
2023-02-21T19:09:11.943Z,21.16
2023-02-21T19:11:39.742Z,21.14
2023-02-21T19:14:07.259Z,21.27
2023-02-21T19:16:36.367Z,21.35
2023-02-21T19:19:04.610Z,21.25
2023-02-21T19:21:32.681Z,21.25
2023-02-21T19:24:00.381Z,21.19
2023-02-21T19:26:29.067Z,21.20
2023-02-21T19:28:56.638Z,21.21
2023-02-21T19:31:24.482Z,21.33
2023-02-21T19:33:53.930Z,21.29
2023-02-21T19:36:22.075Z,21.33
2023-02-21T19:38:49.672Z,21.26
2023-02-21T19:41:17.679Z,21.21
2023-02-21T19:43:45.350Z,21.26
2023-02-21T19:46:20.768Z,21.35
2023-02-21T19:48:48.689Z,21.43
2023-02-21T19:51:20.852Z,21.34
2023-02-21T19:53:48.717Z,21.29
2023-02-21T19:56:16.249Z,21.30
2023-02-21T19:58:45.203Z,21.39
2023-02-21T20:01:13.278Z,21.38
2023-02-21T20:03:41.015Z,21.34
2023-02-21T20:06:08.668Z,21.47
2023-02-21T20:08:37.727Z,21.47
2023-02-21T20:11:05.492Z,21.40
2023-02-21T20:13:32.959Z,21.31
2023-02-21T20:16:00.592Z,21.27
2023-02-21T20:18:28.181Z,21.30
2023-02-21T20:20:55.716Z,21.39
2023-02-21T20:23:23.252Z,21.38
2023-02-21T20:25:52.314Z,21.38
2023-02-21T20:28:19.939Z,21.33
2023-02-21T20:30:47.618Z,21.37
2023-02-21T20:33:15.228Z,21.34
2023-02-21T20:35:42.821Z,21.40
2023-02-21T20:38:10.497Z,21.58
2023-02-21T20:40:38.103Z,21.39
2023-02-21T20:43:07.058Z,21.37
2023-02-21T20:45:34.603Z,21.38
2023-02-21T20:48:02.091Z,21.45
2023-02-21T20:50:29.674Z,21.39
2023-02-21T20:52:57.240Z,21.44
2023-02-21T20:55:24.784Z,21.52
2023-02-21T20:57:52.345Z,21.44
2023-02-21T21:00:21.580Z,21.52
2023-02-21T21:02:49.762Z,21.48
2023-02-21T21:05:17.549Z,21.49
2023-02-21T21:07:45.769Z,21.49
2023-02-21T21:10:15.496Z,21.51
2023-02-21T21:12:43.241Z,21.57
2023-02-21T21:15:10.876Z,21.51
2023-02-21T21:17:39.868Z,21.46
2023-02-21T21:20:09.097Z,21.47
2023-02-21T21:22:36.729Z,21.39
2023-02-21T21:25:04.565Z,21.42
2023-02-21T21:27:32.461Z,21.52
2023-02-21T21:30:00.167Z,21.63
2023-02-21T21:32:28.366Z,21.55
2023-02-21T21:34:58.294Z,21.46
2023-02-21T21:37:27.760Z,21.50
2023-02-21T21:39:56.320Z,21.55
2023-02-21T21:42:26.139Z,21.45
2023-02-21T21:44:55.767Z,21.53
2023-02-21T21:47:24.214Z,21.66
2023-02-21T21:49:51.807Z,21.58
2023-02-21T21:52:22.127Z,21.56
2023-02-21T21:54:50.030Z,21.53
2023-02-21T21:57:18.774Z,21.54
2023-02-21T21:59:49.802Z,21.53
2023-02-21T22:02:17.698Z,21.71
2023-02-21T22:04:45.796Z,21.69
2023-02-21T22:07:13.925Z,21.58
2023-02-21T22:09:42.908Z,21.65
2023-02-21T22:12:19.177Z,21.57
2023-02-21T22:14:46.710Z,21.63
2023-02-21T22:17:14.207Z,21.57
2023-02-21T22:19:41.866Z,21.75
2023-02-21T22:22:09.446Z,21.72
2023-02-21T22:24:39.805Z,21.61
2023-02-21T22:27:08.848Z,21.66
2023-02-21T22:29:36.465Z,21.66
2023-02-21T22:32:04.196Z,21.65
2023-02-21T22:34:31.752Z,21.73
2023-02-21T22:36:59.441Z,21.82
2023-02-21T22:39:27.470Z,21.70
2023-02-21T22:41:55.024Z,21.71
2023-02-21T22:44:24.511Z,21.67
2023-02-21T22:46:53.352Z,21.62
2023-02-21T22:49:20.919Z,21.72
2023-02-21T22:51:48.515Z,21.85
2023-02-21T22:54:16.247Z,21.83
2023-02-21T22:56:44.121Z,21.74
2023-02-21T22:59:11.677Z,21.67
2023-02-21T23:01:40.614Z,21.67
2023-02-21T23:04:08.152Z,21.71
2023-02-21T23:06:35.803Z,21.70
2023-02-21T23:09:04.114Z,21.89
2023-02-21T23:11:31.695Z,21.83
2023-02-21T23:13:59.242Z,21.82
2023-02-21T23:16:26.815Z,21.72
2023-02-21T23:18:55.946Z,21.75
2023-02-21T23:21:23.857Z,21.77
2023-02-21T23:23:51.752Z,21.72
2023-02-21T23:26:20.182Z,21.93
2023-02-21T23:28:48.809Z,21.82
2023-02-21T23:31:17.757Z,21.82
2023-02-21T23:33:45.935Z,21.81
2023-02-21T23:36:15.430Z,21.78
2023-02-21T23:38:42.964Z,21.79
2023-02-21T23:41:10.667Z,21.85
2023-02-21T23:43:38.458Z,22.00
2023-02-21T23:46:07.675Z,21.91
2023-02-21T23:48:35.277Z,21.79
2023-02-21T23:51:02.837Z,21.79
2023-02-21T23:53:31.817Z,21.83
2023-02-21T23:55:59.452Z,21.79
2023-02-21T23:58:28.964Z,21.88
